Time;durP1;ratioP1;P1;durP2;ratioP2;P2;SDS_P1;SDS_P2;PMS_P1;PMS_P2;Temp;Humidity;BMP_temperature;BMP_pressure;BME280_temperature;BME280_humidity;BME280_pressure;Samples;Min_cycle;Max_cycle;Signal;HPM_P1;HPM_P2
2023/11/08 00:02:16;;;;;;;2.38;0.70;;;12.10;99.90;;;;;;5055675;28;20184;-77
2023/11/08 00:04:42;;;;;;;3.05;0.60;;;12.20;99.90;;;;;;5054641;28;20191;-77
2023/11/08 00:07:09;;;;;;;3.57;0.80;;;12.20;99.90;;;;;;5055974;28;20180;-77
2023/11/08 00:09:35;;;;;;;1.80;0.60;;;12.20;99.90;;;;;;5052670;28;20204;-77
2023/11/08 00:12:01;;;;;;;2.47;0.70;;;12.20;99.90;;;;;;5049499;28;20283;-77
2023/11/08 00:14:27;;;;;;;2.67;0.60;;;12.20;99.90;;;;;;5072498;28;20263;-77
2023/11/08 00:16:52;;;;;;;2.20;0.80;;;12.20;99.90;;;;;;5026535;28;20297;-77
2023/11/08 00:19:18;;;;;;;2.50;0.60;;;12.20;99.90;;;;;;5048575;28;20200;-77
2023/11/08 00:21:46;;;;;;;2.43;0.83;;;12.20;99.90;;;;;;5025326;28;20226;-77
2023/11/08 00:24:12;;;;;;;3.10;0.60;;;12.30;99.90;;;;;;5068835;28;20583;-77
2023/11/08 00:26:40;;;;;;;2.20;0.60;;;12.30;99.90;;;;;;5063634;28;20176;-77
2023/11/08 00:29:11;;;;;;;3.77;0.70;;;12.30;99.90;;;;;;5071865;28;20183;-76
2023/11/08 00:31:37;;;;;;;1.70;0.70;;;12.30;99.90;;;;;;5054322;28;20628;-76
2023/11/08 00:34:03;;;;;;;2.77;0.80;;;12.30;99.90;;;;;;5045991;28;20637;-77
2023/11/08 00:36:29;;;;;;;2.00;0.80;;;12.30;99.90;;;;;;5053835;28;20254;-77
2023/11/08 00:38:57;;;;;;;1.50;0.80;;;12.30;99.90;;;;;;5020753;28;20661;-77
2023/11/08 00:41:24;;;;;;;2.25;0.68;;;12.30;99.90;;;;;;5029680;28;20268;-76
2023/11/08 00:43:49;;;;;;;2.00;1.10;;;12.30;99.90;;;;;;5032703;28;20173;-77
2023/11/08 00:46:15;;;;;;;3.00;0.60;;;12.30;99.90;;;;;;5037302;28;20713;-77
2023/11/08 00:48:41;;;;;;;1.70;0.50;;;12.40;99.90;;;;;;5045892;28;20191;-77
2023/11/08 00:51:07;;;;;;;2.47;0.50;;;12.40;99.90;;;;;;5053471;28;20196;-77
2023/11/08 00:53:32;;;;;;;3.17;0.80;;;12.40;99.90;;;;;;5053529;28;20553;-77
2023/11/08 00:55:58;;;;;;;1.80;0.50;;;12.40;99.90;;;;;;5057194;28;20219;-76
2023/11/08 00:58:24;;;;;;;1.77;0.50;;;12.40;99.90;;;;;;5026613;28;20542;-76
2023/11/08 01:00:49;;;;;;;1.63;0.57;;;12.40;99.90;;;;;;5053181;28;20684;-76
2023/11/08 01:03:18;;;;;;;1.80;0.63;;;12.40;99.90;;;;;;5053396;28;20191;-77
2023/11/08 01:05:44;;;;;;;2.15;0.50;;;12.40;99.90;;;;;;5036716;28;20265;-77
2023/11/08 01:08:30;;;;;;;2.50;0.60;;;12.40;99.90;;;;;;5048147;28;20185;-77
2023/11/08 01:10:56;;;;;;;2.03;0.53;;;12.40;99.90;;;;;;5036326;28;20212;-77
2023/11/08 01:13:21;;;;;;;3.50;0.67;;;12.40;99.90;;;;;;5053468;28;20742;-77
2023/11/08 01:15:50;;;;;;;2.10;0.60;;;12.40;99.90;;;;;;5036816;28;20622;-77
2023/11/08 01:18:16;;;;;;;1.65;0.60;;;12.40;99.90;;;;;;5036408;28;20172;-77
2023/11/08 01:20:42;;;;;;;3.43;1.00;;;12.50;99.90;;;;;;5054568;28;20746;-77
2023/11/08 01:23:09;;;;;;;2.40;0.60;;;12.50;99.90;;;;;;5046407;28;20205;-76
2023/11/08 01:25:35;;;;;;;1.20;0.50;;;12.50;99.90;;;;;;5033031;28;20653;-76
2023/11/08 01:28:03;;;;;;;2.40;0.60;;;12.50;99.90;;;;;;5041404;28;20200;-76
2023/11/08 01:30:29;;;;;;;4.70;0.60;;;12.50;99.90;;;;;;5020727;28;20612;-76
2023/11/08 01:32:57;;;;;;;3.10;0.60;;;12.50;99.90;;;;;;5021766;28;20645;-76
2023/11/08 01:35:22;;;;;;;1.30;0.50;;;12.50;99.90;;;;;;5053968;28;20585;-76
2023/11/08 01:37:50;;;;;;;1.92;0.70;;;12.50;99.90;;;;;;5079416;28;20191;-76
2023/11/08 01:40:18;;;;;;;2.30;0.60;;;12.50;99.90;;;;;;5044052;28;20196;-76
2023/11/08 01:42:43;;;;;;;7.38;0.68;;;12.50;99.90;;;;;;5054025;28;20184;-76
2023/11/08 01:45:09;;;;;;;2.43;0.60;;;12.50;99.90;;;;;;5041963;28;20165;-76
2023/11/08 01:47:35;;;;;;;1.60;0.70;;;12.50;99.90;;;;;;5060357;28;20572;-76
2023/11/08 01:50:06;;;;;;;3.73;0.60;;;12.50;99.90;;;;;;5057265;28;20180;-76
2023/11/08 01:52:32;;;;;;;1.50;0.52;;;12.50;99.90;;;;;;5057735;28;20168;-76
2023/11/08 01:54:58;;;;;;;1.83;0.60;;;12.50;99.90;;;;;;5040562;28;20201;-76
2023/11/08 01:57:25;;;;;;;2.53;0.60;;;12.50;99.90;;;;;;5058490;28;20717;-76
2023/11/08 01:59:52;;;;;;;1.58;0.60;;;12.40;99.90;;;;;;5041308;28;20685;-76
2023/11/08 02:02:19;;;;;;;2.88;0.95;;;12.40;99.90;;;;;;5039109;28;20181;-76
2023/11/08 02:04:47;;;;;;;3.35;0.70;;;12.40;99.90;;;;;;5018335;28;20247;-76
2023/11/08 02:07:12;;;;;;;3.05;0.65;;;12.40;99.90;;;;;;5032785;28;20180;-75
2023/11/08 02:09:40;;;;;;;2.03;0.60;;;12.40;99.90;;;;;;5041334;28;20257;-76
2023/11/08 02:12:07;;;;;;;3.40;1.23;;;12.40;99.90;;;;;;5059785;28;20673;-76
2023/11/08 02:14:32;;;;;;;1.90;0.70;;;12.40;99.90;;;;;;5044440;28;20164;-76
2023/11/08 02:16:58;;;;;;;2.43;0.70;;;12.40;99.90;;;;;;5064200;28;20523;-76
2023/11/08 02:19:24;;;;;;;3.30;0.60;;;12.40;99.90;;;;;;5032757;28;20209;-76
2023/11/08 02:21:51;;;;;;;3.20;0.50;;;12.40;99.90;;;;;;5008223;28;20170;-76
2023/11/08 02:24:23;;;;;;;1.60;0.60;;;12.50;99.90;;;;;;5027656;28;20170;-75
2023/11/08 02:26:49;;;;;;;3.17;0.70;;;12.40;99.90;;;;;;5025386;28;20184;-76
2023/11/08 02:29:17;;;;;;;1.30;0.50;;;12.50;99.90;;;;;;5011573;28;20595;-77
2023/11/08 02:31:50;;;;;;;1.80;0.70;;;12.50;99.90;;;;;;5007292;28;20185;-76
2023/11/08 02:34:16;;;;;;;2.35;0.70;;;12.40;99.90;;;;;;5028008;28;20192;-76
2023/11/08 02:36:42;;;;;;;2.25;0.60;;;12.40;99.90;;;;;;5045437;28;20246;-76
2023/11/08 02:39:08;;;;;;;2.60;0.67;;;12.50;99.90;;;;;;5058764;28;20610;-76
2023/11/08 02:41:35;;;;;;;1.30;0.60;;;12.50;99.90;;;;;;5025189;28;20177;-76
2023/11/08 02:44:00;;;;;;;1.85;0.60;;;12.50;99.90;;;;;;5042180;28;20205;-76
2023/11/08 02:46:27;;;;;;;2.23;0.60;;;12.50;99.90;;;;;;5061898;28;20172;-76
2023/11/08 02:48:56;;;;;;;4.32;0.70;;;12.50;99.90;;;;;;5041160;28;20571;-76
2023/11/08 02:51:24;;;;;;;1.75;0.80;;;12.50;99.90;;;;;;5058169;28;20396;-77
2023/11/08 02:53:49;;;;;;;3.40;0.77;;;12.50;99.90;;;;;;5040265;28;20196;-77
2023/11/08 02:56:15;;;;;;;1.67;0.57;;;12.50;99.90;;;;;;5058846;28;20189;-77
2023/11/08 02:58:41;;;;;;;1.70;0.60;;;12.50;99.90;;;;;;5025157;28;20307;-77
2023/11/08 03:01:07;;;;;;;2.17;0.57;;;12.50;99.90;;;;;;5041713;28;20193;-77
2023/11/08 03:03:33;;;;;;;3.87;0.63;;;12.50;99.90;;;;;;5041726;28;20572;-76
2023/11/08 03:05:59;;;;;;;1.97;0.83;;;12.40;99.90;;;;;;5023785;28;20173;-76
2023/11/08 03:08:24;;;;;;;2.70;0.80;;;12.50;99.90;;;;;;5039786;28;20583;-76
2023/11/08 03:10:50;;;;;;;1.73;0.60;;;12.50;99.90;;;;;;5022456;28;20300;-76
2023/11/08 03:13:16;;;;;;;1.70;0.60;;;12.50;99.90;;;;;;5010156;28;20350;-76
2023/11/08 03:15:42;;;;;;;2.60;0.60;;;12.50;99.90;;;;;;5039426;28;20846;-76
2023/11/08 03:18:08;;;;;;;8.07;0.70;;;12.50;99.90;;;;;;5039171;28;20257;-76
2023/11/08 03:20:35;;;;;;;2.00;0.63;;;12.50;99.90;;;;;;5056636;28;20609;-76
2023/11/08 03:23:03;;;;;;;5.05;0.70;;;12.50;99.90;;;;;;5060083;28;20551;-76
2023/11/08 03:25:29;;;;;;;1.50;0.70;;;12.50;99.90;;;;;;5045376;28;20181;-76
2023/11/08 03:27:54;;;;;;;4.50;0.70;;;12.50;99.90;;;;;;5044472;28;20184;-75
2023/11/08 03:30:20;;;;;;;3.00;0.70;;;12.50;99.90;;;;;;5058882;28;20674;-76
2023/11/08 03:32:46;;;;;;;1.70;0.60;;;12.50;99.90;;;;;;5025525;28;20180;-76
2023/11/08 03:35:13;;;;;;;2.10;0.70;;;12.50;99.90;;;;;;5055625;28;20314;-76
2023/11/08 03:37:40;;;;;;;4.25;0.70;;;12.40;99.90;;;;;;5080037;28;20658;-76
2023/11/08 03:40:12;;;;;;;7.20;0.80;;;12.40;99.90;;;;;;5080605;28;20279;-76
2023/11/08 03:42:42;;;;;;;2.38;0.75;;;12.40;99.90;;;;;;5063366;28;20232;-76
2023/11/08 03:45:09;;;;;;;1.42;0.60;;;12.40;99.90;;;;;;5076942;28;20204;-75
2023/11/08 03:47:36;;;;;;;1.60;0.60;;;12.30;99.90;;;;;;5044766;28;20180;-76
2023/11/08 03:50:02;;;;;;;3.03;0.90;;;12.30;99.90;;;;;;5084255;28;20188;-75
2023/11/08 03:52:31;;;;;;;1.75;0.65;;;12.30;99.90;;;;;;5029270;28;20168;-76
2023/11/08 03:54:57;;;;;;;2.20;0.60;;;12.30;99.90;;;;;;5045517;28;20204;-75
2023/11/08 03:57:23;;;;;;;16.40;2.33;;;12.30;99.90;;;;;;5061676;28;20263;-76
2023/11/08 03:59:49;;;;;;;5.30;0.70;;;12.30;99.90;;;;;;5079809;28;20223;-76
2023/11/08 04:02:17;;;;;;;1.55;0.70;;;12.20;99.90;;;;;;5080038;28;20566;-76
2023/11/08 04:04:45;;;;;;;1.65;0.60;;;12.10;99.90;;;;;;5044356;28;20160;-76
2023/11/08 04:07:10;;;;;;;4.00;1.00;;;12.10;99.90;;;;;;5079558;28;20172;-76
2023/11/08 04:09:36;;;;;;;6.50;0.70;;;12.00;99.90;;;;;;5076332;28;20243;-75
2023/11/08 04:12:02;;;;;;;3.90;0.70;;;12.00;99.90;;;;;;5047391;28;20177;-75
2023/11/08 04:14:28;;;;;;;2.70;0.67;;;12.00;99.90;;;;;;5060297;28;20176;-76
2023/11/08 04:16:54;;;;;;;1.70;0.60;;;12.00;99.90;;;;;;5043931;28;20200;-75
2023/11/08 04:19:20;;;;;;;1.60;0.60;;;11.90;99.90;;;;;;5041223;28;20258;-76
2023/11/08 04:21:45;;;;;;;1.97;0.60;;;11.90;99.90;;;;;;5043857;28;20173;-76
2023/11/08 04:24:11;;;;;;;2.20;0.60;;;11.90;99.90;;;;;;5046469;28;20580;-76
2023/11/08 04:26:37;;;;;;;1.90;0.50;;;11.90;99.90;;;;;;5048013;28;20222;-77
2023/11/08 04:29:03;;;;;;;1.85;0.60;;;12.00;99.90;;;;;;5044818;28;20533;-77
2023/11/08 04:31:29;;;;;;;1.37;0.50;;;12.00;99.90;;;;;;5043401;28;20199;-77
2023/11/08 04:33:55;;;;;;;2.13;0.50;;;12.00;99.90;;;;;;5044496;28;20594;-77
2023/11/08 04:36:21;;;;;;;2.60;0.57;;;12.00;99.90;;;;;;5060307;28;20201;-76
2023/11/08 04:38:47;;;;;;;2.60;0.68;;;12.00;99.90;;;;;;5060658;28;20662;-77
2023/11/08 04:41:14;;;;;;;3.20;0.70;;;12.00;99.90;;;;;;5039939;28;20199;-76
2023/11/08 04:43:42;;;;;;;1.40;0.60;;;12.00;99.90;;;;;;5057022;28;20165;-76
2023/11/08 04:46:10;;;;;;;2.33;0.60;;;12.00;99.90;;;;;;5056679;28;20177;-76
2023/11/08 04:48:37;;;;;;;3.33;0.70;;;12.00;99.90;;;;;;5055567;28;20169;-76
2023/11/08 04:51:03;;;;;;;1.95;0.70;;;12.00;99.90;;;;;;5037983;28;20201;-76
2023/11/08 04:53:29;;;;;;;1.50;0.60;;;11.90;99.90;;;;;;5055563;28;20165;-76
2023/11/08 04:55:57;;;;;;;2.13;0.60;;;11.90;99.90;;;;;;5037932;28;20205;-75
2023/11/08 04:58:26;;;;;;;3.47;0.80;;;11.80;99.90;;;;;;5038492;28;20172;-76
2023/11/08 05:00:52;;;;;;;3.65;0.50;;;11.70;99.90;;;;;;5056197;28;20185;-75
2023/11/08 05:03:17;;;;;;;1.90;0.50;;;11.70;99.90;;;;;;5039435;28;20570;-75
2023/11/08 05:05:43;;;;;;;2.10;0.90;;;11.60;99.90;;;;;;5060951;28;20572;-75
2023/11/08 05:08:09;;;;;;;1.50;0.57;;;11.60;99.90;;;;;;5022295;28;20188;-76
2023/11/08 05:10:35;;;;;;;3.67;0.67;;;11.50;99.90;;;;;;5038667;28;20311;-75
2023/11/08 05:13:02;;;;;;;1.90;0.60;;;11.40;99.90;;;;;;5056982;28;20691;-75
2023/11/08 05:15:31;;;;;;;2.03;0.60;;;11.40;99.90;;;;;;5038842;28;20208;-75
2023/11/08 05:17:57;;;;;;;2.40;0.60;;;11.30;99.90;;;;;;5038769;28;20534;-76
2023/11/08 05:20:25;;;;;;;2.88;0.70;;;11.30;99.90;;;;;;5038743;28;20193;-76
2023/11/08 05:22:55;;;;;;;1.73;0.70;;;11.30;99.90;;;;;;5042281;28;20165;-76
2023/11/08 05:25:21;;;;;;;3.08;0.75;;;11.20;99.90;;;;;;5043543;28;20250;-76
2023/11/08 05:27:47;;;;;;;2.75;0.75;;;11.20;99.90;;;;;;5044738;28;20193;-76
2023/11/08 05:30:15;;;;;;;3.28;0.68;;;11.20;99.90;;;;;;5045770;28;20189;-76
2023/11/08 05:32:44;;;;;;;2.80;0.80;;;11.10;99.90;;;;;;5045933;28;20204;-76
2023/11/08 05:35:15;;;;;;;2.03;0.70;;;11.10;99.90;;;;;;5029370;28;20224;-76
2023/11/08 05:37:44;;;;;;;1.70;0.65;;;11.10;99.90;;;;;;5040500;28;20188;-76
2023/11/08 05:40:14;;;;;;;2.75;0.80;;;11.10;99.90;;;;;;5045154;28;20334;-76
2023/11/08 05:42:40;;;;;;;3.53;0.90;;;11.10;99.90;;;;;;5047753;28;20578;-76
2023/11/08 05:45:10;;;;;;;3.88;0.70;;;11.10;99.90;;;;;;5025835;28;20636;-75
2023/11/08 05:47:36;;;;;;;1.58;0.70;;;11.10;99.90;;;;;;5036887;28;20181;-77
2023/11/08 05:50:03;;;;;;;2.72;0.77;;;11.20;99.90;;;;;;5018652;28;20224;-76
2023/11/08 05:52:29;;;;;;;3.13;0.80;;;11.20;99.90;;;;;;5034358;28;20216;-77
2023/11/08 05:54:55;;;;;;;4.63;0.80;;;11.20;99.90;;;;;;5016919;28;20169;-77
2023/11/08 05:57:21;;;;;;;2.37;0.70;;;11.20;99.90;;;;;;5019986;28;20700;-77
2023/11/08 05:59:46;;;;;;;1.93;0.97;;;11.30;99.90;;;;;;5017180;28;20623;-79
2023/11/08 06:02:12;;;;;;;1.87;0.80;;;11.30;99.90;;;;;;5051032;28;20215;-80
2023/11/08 06:04:38;;;;;;;1.40;0.70;;;11.30;99.90;;;;;;5033851;28;20545;-79
2023/11/08 06:07:06;;;;;;;3.63;0.97;;;11.30;99.90;;;;;;5059552;28;20188;-77
2023/11/08 06:09:31;;;;;;;1.95;0.80;;;11.40;99.90;;;;;;5035434;28;20711;-77
2023/11/08 06:11:57;;;;;;;2.63;1.00;;;11.40;99.90;;;;;;5053683;28;20169;-76
2023/11/08 06:14:25;;;;;;;1.95;0.80;;;11.40;99.90;;;;;;5053803;28;20226;-76
2023/11/08 06:16:52;;;;;;;1.80;0.60;;;11.50;99.90;;;;;;5052465;28;20659;-76
2023/11/08 06:19:19;;;;;;;2.28;0.80;;;11.50;99.90;;;;;;5035682;28;20161;-76
2023/11/08 06:21:51;;;;;;;2.50;0.80;;;11.50;99.90;;;;;;5034706;28;20179;-76
2023/11/08 06:24:17;;;;;;;3.85;0.75;;;11.50;99.90;;;;;;5034531;28;20173;-77
2023/11/08 06:26:42;;;;;;;1.87;0.70;;;11.50;99.90;;;;;;5040629;28;20272;-76
2023/11/08 06:29:08;;;;;;;2.67;1.00;;;11.50;99.90;;;;;;5038914;28;20710;-77
2023/11/08 06:31:37;;;;;;;2.50;0.80;;;11.50;99.90;;;;;;5035061;28;20393;-76
2023/11/08 06:34:03;;;;;;;4.30;0.88;;;11.50;99.90;;;;;;5051897;28;20169;-76
2023/11/08 06:36:29;;;;;;;1.83;0.80;;;11.60;99.90;;;;;;5059768;28;20673;-76
2023/11/08 06:38:57;;;;;;;3.15;1.45;;;11.60;99.90;;;;;;5060686;28;20165;-76
2023/11/08 06:41:26;;;;;;;2.72;0.93;;;11.60;99.90;;;;;;5042678;28;20221;-77
2023/11/08 06:43:53;;;;;;;3.08;0.90;;;11.60;99.90;;;;;;5060783;28;20182;-77
2023/11/08 06:46:19;;;;;;;2.03;0.93;;;11.70;99.90;;;;;;5041029;28;20541;-77
2023/11/08 06:48:46;;;;;;;3.37;1.10;;;11.70;99.90;;;;;;5055584;28;20161;-77
2023/11/08 06:51:12;;;;;;;2.78;1.63;;;11.70;99.90;;;;;;5075893;28;20220;-77
2023/11/08 06:53:38;;;;;;;2.15;0.70;;;11.70;99.90;;;;;;5058118;28;20180;-77
2023/11/08 06:56:04;;;;;;;4.50;1.10;;;11.70;99.90;;;;;;5048939;28;20681;-77
2023/11/08 06:58:31;;;;;;;2.70;1.00;;;11.70;99.90;;;;;;5064201;28;20176;-77
2023/11/08 07:00:57;;;;;;;3.22;1.23;;;11.70;99.90;;;;;;5087622;28;20226;-77
2023/11/08 07:03:25;;;;;;;4.70;1.15;;;11.80;99.90;;;;;;5072776;28;20169;-77
2023/11/08 07:05:51;;;;;;;6.85;2.33;;;11.80;99.90;;;;;;5068696;28;20172;-77
2023/11/08 07:08:17;;;;;;;4.93;1.20;;;11.80;99.90;;;;;;5089217;28;20251;-77
2023/11/08 07:10:44;;;;;;;3.93;1.40;;;11.80;99.90;;;;;;5089348;28;20233;-77
2023/11/08 07:13:09;;;;;;;5.40;2.20;;;11.80;99.90;;;;;;5062133;28;20263;-77
2023/11/08 07:15:36;;;;;;;3.10;1.20;;;11.80;99.90;;;;;;5055398;28;20189;-77
2023/11/08 07:18:01;;;;;;;5.15;1.23;;;11.90;99.90;;;;;;5039024;28;20191;-77
2023/11/08 07:20:27;;;;;;;2.20;0.97;;;11.90;99.90;;;;;;5054564;28;20188;-77
2023/11/08 07:22:53;;;;;;;4.37;0.80;;;12.00;99.90;;;;;;5071860;28;20168;-77
2023/11/08 07:25:19;;;;;;;2.20;0.60;;;12.10;99.90;;;;;;5072033;28;20172;-77
2023/11/08 07:27:44;;;;;;;4.27;0.80;;;12.20;99.90;;;;;;5055655;28;20211;-77
2023/11/08 07:30:11;;;;;;;1.60;0.70;;;12.30;99.90;;;;;;5052570;28;20315;-77
2023/11/08 07:32:38;;;;;;;1.98;0.80;;;12.40;99.90;;;;;;5053017;28;20168;-77
2023/11/08 07:35:05;;;;;;;4.15;1.08;;;12.40;99.90;;;;;;5029697;28;20371;-77
2023/11/08 07:37:31;;;;;;;2.40;0.93;;;12.50;99.90;;;;;;5047339;28;20201;-77
2023/11/08 07:39:57;;;;;;;2.55;1.00;;;12.60;99.90;;;;;;5043729;28;20189;-76
2023/11/08 07:42:27;;;;;;;2.92;0.90;;;12.70;99.90;;;;;;5043615;28;20168;-76
2023/11/08 07:44:56;;;;;;;3.50;1.30;;;12.70;99.90;;;;;;5029183;28;20638;-77
2023/11/08 07:47:21;;;;;;;2.72;1.10;;;12.80;99.90;;;;;;5043158;28;20214;-77
2023/11/08 07:49:47;;;;;;;4.33;0.90;;;12.90;99.90;;;;;;5065878;28;20554;-76
2023/11/08 07:52:13;;;;;;;3.07;0.90;;;12.90;99.90;;;;;;5034598;28;20172;-76
2023/11/08 07:54:39;;;;;;;3.00;0.80;;;13.00;99.90;;;;;;5069651;28;20173;-77
2023/11/08 07:57:05;;;;;;;2.80;0.70;;;13.00;99.90;;;;;;5050629;28;20204;-77
2023/11/08 07:59:31;;;;;;;5.13;0.80;;;13.10;99.90;;;;;;5057059;28;20614;-77
2023/11/08 08:01:56;;;;;;;6.20;1.00;;;13.10;99.90;;;;;;5061015;28;20228;-77
2023/11/08 08:04:25;;;;;;;2.30;0.80;;;13.10;99.90;;;;;;5077965;28;20986;-77
2023/11/08 08:06:51;;;;;;;3.90;0.73;;;13.10;99.90;;;;;;5031551;28;20319;-77
2023/11/08 08:09:17;;;;;;;2.63;0.80;;;13.20;99.90;;;;;;5075185;28;20653;-77
2023/11/08 08:11:46;;;;;;;6.40;0.70;;;13.20;99.90;;;;;;5039869;28;20674;-77
2023/11/08 08:14:12;;;;;;;4.13;0.93;;;13.20;99.90;;;;;;5031747;28;20581;-77
2023/11/08 08:16:41;;;;;;;1.50;0.70;;;13.20;99.90;;;;;;5032483;28;20207;-77
2023/11/08 08:19:08;;;;;;;2.55;0.80;;;13.30;99.90;;;;;;5019957;28;20591;-77
2023/11/08 08:21:34;;;;;;;2.57;0.70;;;13.30;99.90;;;;;;5035622;28;20165;-77
2023/11/08 08:24:00;;;;;;;2.25;0.60;;;13.30;99.90;;;;;;5055524;28;20675;-77
2023/11/08 08:26:26;;;;;;;4.17;0.60;;;13.30;99.90;;;;;;5046914;28;20255;-77
2023/11/08 08:28:51;;;;;;;1.50;0.50;;;13.30;99.90;;;;;;5054883;28;20172;-77
2023/11/08 08:31:18;;;;;;;4.77;0.67;;;13.40;99.90;;;;;;5046798;28;20192;-77
2023/11/08 08:33:44;;;;;;;2.77;0.80;;;13.40;99.90;;;;;;5054858;28;20277;-77
2023/11/08 08:36:11;;;;;;;5.60;1.20;;;13.40;99.90;;;;;;5072837;28;21069;-77
2023/11/08 08:38:37;;;;;;;3.20;0.70;;;13.40;99.90;;;;;;5064770;28;20166;-77
2023/11/08 08:41:04;;;;;;;4.03;0.90;;;13.50;99.90;;;;;;5043660;28;20611;-77
2023/11/08 08:43:30;;;;;;;3.30;0.73;;;13.50;99.90;;;;;;5033346;28;20681;-77
2023/11/08 08:45:56;;;;;;;4.03;0.60;;;13.50;99.90;;;;;;5053408;28;20641;-77
2023/11/08 08:48:22;;;;;;;3.07;0.90;;;13.60;99.90;;;;;;5063320;28;20590;-76
2023/11/08 08:50:47;;;;;;;2.13;0.70;;;13.60;99.90;;;;;;5026089;28;20235;-77
2023/11/08 08:53:14;;;;;;;5.50;1.13;;;13.70;99.90;;;;;;5043034;28;20173;-77
2023/11/08 08:55:40;;;;;;;2.07;0.70;;;13.80;99.90;;;;;;5068264;28;20220;-76
2023/11/08 08:58:05;;;;;;;2.80;0.80;;;13.80;99.90;;;;;;5019160;28;20642;-76
2023/11/08 09:00:32;;;;;;;2.80;1.10;;;14.00;99.90;;;;;;5050992;28;20193;-76
2023/11/08 09:02:57;;;;;;;4.47;0.70;;;14.10;99.90;;;;;;5053686;28;20188;-76
2023/11/08 09:05:24;;;;;;;4.93;0.70;;;14.30;99.90;;;;;;5039666;28;20583;-76
2023/11/08 09:07:51;;;;;;;4.00;0.70;;;14.60;99.90;;;;;;5034535;28;20185;-76
2023/11/08 09:10:17;;;;;;;4.60;0.73;;;14.90;99.90;;;;;;5062809;28;20626;-76
2023/11/08 09:12:43;;;;;;;7.17;0.80;;;15.10;99.90;;;;;;5063280;28;20578;-76
2023/11/08 09:15:11;;;;;;;2.90;0.90;;;15.30;99.90;;;;;;5054766;28;20962;-76
2023/11/08 09:17:37;;;;;;;1.97;0.70;;;15.50;99.90;;;;;;5055908;28;20637;-77
2023/11/08 09:20:08;;;;;;;4.70;0.90;;;15.60;99.90;;;;;;5061963;28;20687;-76
2023/11/08 09:22:37;;;;;;;3.70;0.90;;;15.70;99.90;;;;;;5071775;28;20936;-76
2023/11/08 09:25:07;;;;;;;5.30;0.90;;;15.90;99.90;;;;;;5020126;28;20702;-76
2023/11/08 09:27:32;;;;;;;2.70;0.70;;;16.10;99.90;;;;;;5026769;28;20668;-76
2023/11/08 09:29:59;;;;;;;2.40;0.70;;;16.20;99.90;;;;;;5057711;28;20710;-76
2023/11/08 09:32:25;;;;;;;3.10;0.77;;;16.40;99.90;;;;;;5028012;28;20178;-76
2023/11/08 09:34:53;;;;;;;5.47;0.90;;;16.60;99.90;;;;;;5048507;28;20584;-76
2023/11/08 09:37:18;;;;;;;3.10;0.60;;;17.00;99.90;;;;;;5059201;28;20630;-76
2023/11/08 09:39:48;;;;;;;3.13;0.90;;;17.20;99.90;;;;;;5029751;28;20624;-76
2023/11/08 09:42:18;;;;;;;3.30;0.90;;;17.40;99.90;;;;;;5052108;28;20260;-76
2023/11/08 09:44:46;;;;;;;2.50;0.90;;;17.40;99.90;;;;;;5041257;28;20586;-76
2023/11/08 09:47:13;;;;;;;4.27;0.80;;;17.40;99.90;;;;;;5033892;28;20584;-77
2023/11/08 09:49:39;;;;;;;2.63;0.70;;;17.50;99.90;;;;;;5042843;28;20603;-77
2023/11/08 09:52:05;;;;;;;3.50;0.90;;;17.50;99.90;;;;;;5032008;28;20728;-77
2023/11/08 09:54:31;;;;;;;3.37;1.00;;;17.50;99.90;;;;;;5040865;28;20584;-77
2023/11/08 09:56:58;;;;;;;3.10;1.77;;;17.40;99.90;;;;;;5024295;28;20203;-77
2023/11/08 09:59:28;;;;;;;3.97;1.00;;;17.40;99.90;;;;;;5034058;28;20235;-78
2023/11/08 10:01:57;;;;;;;3.37;0.80;;;17.30;99.90;;;;;;5036658;28;20947;-78
2023/11/08 10:04:26;;;;;;;3.87;1.00;;;17.20;99.90;;;;;;5026358;28;20583;-77
2023/11/08 10:06:51;;;;;;;5.53;0.90;;;17.10;99.90;;;;;;5034207;28;20584;-78
2023/11/08 10:09:26;;;;;;;3.63;1.10;;;17.10;99.90;;;;;;5051934;28;20591;-77
2023/11/08 10:11:52;;;;;;;4.70;0.80;;;17.10;99.90;;;;;;5034069;28;20218;-78
2023/11/08 10:14:32;;;;;;;3.13;0.70;;;17.20;99.90;;;;;;5026569;28;20915;-77
2023/11/08 10:16:59;;;;;;;2.50;1.00;;;17.10;99.90;;;;;;5017452;28;20266;-77
2023/11/08 10:19:38;;;;;;;1.80;0.80;;;17.10;99.90;;;;;;5033650;28;20795;-78
2023/11/08 10:22:04;;;;;;;3.73;0.93;;;17.10;99.90;;;;;;5034148;28;20617;-77
2023/11/08 10:24:30;;;;;;;3.60;0.80;;;17.20;99.90;;;;;;5042281;28;20694;-78
2023/11/08 10:27:10;;;;;;;3.17;0.87;;;17.20;99.90;;;;;;5051182;28;20647;-78
2023/11/08 10:29:36;;;;;;;3.03;0.70;;;17.20;99.90;;;;;;5040670;28;20200;-76
2023/11/08 10:32:20;;;;;;;3.13;1.30;;;17.20;99.90;;;;;;5017134;28;20582;-78
2023/11/08 10:34:47;;;;;;;6.23;1.10;;;17.30;99.90;;;;;;5036781;28;20655;-78
2023/11/08 10:37:26;;;;;;;3.20;0.80;;;17.30;99.90;;;;;;5046493;28;20659;-77
2023/11/08 10:39:57;;;;;;;2.63;0.80;;;17.30;99.90;;;;;;5047943;28;20614;-77
2023/11/08 10:42:24;;;;;;;2.23;0.90;;;17.20;99.90;;;;;;5020265;28;21271;-77
2023/11/08 10:44:52;;;;;;;3.10;0.80;;;17.20;99.90;;;;;;5020493;28;20641;-77
2023/11/08 10:47:17;;;;;;;3.10;0.90;;;17.10;99.90;;;;;;5017147;28;20675;-77
2023/11/08 10:49:48;;;;;;;2.80;0.90;;;17.00;99.90;;;;;;5050314;28;20706;-77
2023/11/08 10:52:13;;;;;;;3.73;1.00;;;17.00;99.90;;;;;;5012295;28;20193;-78
2023/11/08 10:54:40;;;;;;;1.77;0.70;;;17.00;99.90;;;;;;5068917;28;20644;-77
2023/11/08 10:57:08;;;;;;;3.20;0.80;;;17.00;99.90;;;;;;5054258;28;20212;-78
2023/11/08 10:59:36;;;;;;;2.50;1.03;;;17.00;99.90;;;;;;5027777;28;21014;-78
2023/11/08 11:02:24;;;;;;;2.50;0.80;;;17.00;99.90;;;;;;5064107;28;20709;-78
2023/11/08 11:04:56;;;;;;;2.53;0.83;;;17.00;99.90;;;;;;5066176;28;20918;-78
2023/11/08 11:07:25;;;;;;;2.90;1.00;;;17.00;99.90;;;;;;5040953;28;20615;-76
2023/11/08 11:09:53;;;;;;;3.50;0.70;;;17.00;99.90;;;;;;5015809;28;20627;-76
2023/11/08 11:12:42;;;;;;;2.93;0.80;;;17.00;99.90;;;;;;5056356;28;20590;-77
2023/11/08 11:15:15;;;;;;;4.40;0.70;;;17.00;99.90;;;;;;5020348;28;20621;-76
2023/11/08 11:17:47;;;;;;;1.80;0.70;;;16.90;99.90;;;;;;5056165;28;21151;-76
2023/11/08 11:20:15;;;;;;;2.73;0.90;;;16.80;99.90;;;;;;5053655;28;20703;-77
2023/11/08 11:22:41;;;;;;;3.50;1.33;;;16.60;99.90;;;;;;5037179;28;20588;-76
2023/11/08 11:25:11;;;;;;;7.53;0.90;;;16.50;99.90;;;;;;5070806;28;20589;-77
2023/11/08 11:27:40;;;;;;;3.40;0.90;;;16.40;99.90;;;;;;5073494;28;20578;-77
2023/11/08 11:30:18;;;;;;;2.73;0.70;;;16.20;99.90;;;;;;5073170;28;21046;-76
2023/11/08 11:32:47;;;;;;;3.17;0.70;;;16.20;99.90;;;;;;5047360;28;20578;-76
2023/11/08 11:35:17;;;;;;;4.70;0.93;;;16.20;99.90;;;;;;5073099;28;20959;-78
2023/11/08 11:38:02;;;;;;;4.30;0.60;;;16.10;99.90;;;;;;5073616;28;20589;-78
2023/11/08 11:40:28;;;;;;;2.30;0.90;;;16.10;99.90;;;;;;5047364;28;20615;-78
2023/11/08 11:42:54;;;;;;;2.70;0.73;;;16.10;99.90;;;;;;5061925;28;21127;-77
2023/11/08 11:45:21;;;;;;;3.47;0.80;;;16.10;99.90;;;;;;5061823;28;20181;-78
2023/11/08 11:47:51;;;;;;;1.90;0.60;;;16.00;99.90;;;;;;5069273;28;20586;-77
2023/11/08 11:50:18;;;;;;;3.57;1.00;;;16.00;99.90;;;;;;5064467;28;20656;-78
2023/11/08 11:52:47;;;;;;;2.60;0.70;;;16.00;99.90;;;;;;5062392;28;20615;-77
2023/11/08 11:55:15;;;;;;;1.90;0.63;;;16.00;99.90;;;;;;5020880;28;20694;-78
2023/11/08 11:57:41;;;;;;;3.23;1.00;;;16.00;99.90;;;;;;5073130;28;20578;-76
2023/11/08 12:00:10;;;;;;;3.43;0.80;;;16.10;99.90;;;;;;5054560;28;20610;-77
2023/11/08 12:02:37;;;;;;;2.60;0.60;;;16.10;99.90;;;;;;5054978;28;20593;-77
2023/11/08 12:05:05;;;;;;;2.37;0.70;;;16.20;99.90;;;;;;5063373;28;20580;-77
2023/11/08 12:07:31;;;;;;;4.20;1.57;;;16.30;99.90;;;;;;5040001;28;20579;-77
2023/11/08 12:10:07;;;;;;;3.27;0.73;;;16.40;99.90;;;;;;5072056;28;20618;-77
2023/11/08 12:12:37;;;;;;;2.97;0.63;;;16.40;99.90;;;;;;5072733;28;20697;-77
2023/11/08 12:15:18;;;;;;;2.60;0.70;;;16.50;99.90;;;;;;5031174;28;20590;-77
2023/11/08 12:17:49;;;;;;;3.13;0.80;;;16.50;99.90;;;;;;5039960;28;20672;-78
2023/11/08 12:20:15;;;;;;;3.27;1.10;;;16.50;99.90;;;;;;5043033;28;20616;-77
2023/11/08 12:22:51;;;;;;;4.30;0.80;;;16.60;99.90;;;;;;5058513;28;20583;-77
2023/11/08 12:25:19;;;;;;;2.57;0.70;;;16.60;99.90;;;;;;5072841;28;20583;-77
2023/11/08 12:27:48;;;;;;;4.73;0.80;;;16.60;99.90;;;;;;5064599;28;20705;-77
2023/11/08 12:30:14;;;;;;;1.70;0.60;;;16.60;99.90;;;;;;5058888;28;21027;-77
2023/11/08 12:32:40;;;;;;;4.23;1.70;;;16.60;99.90;;;;;;5028758;28;20592;-77
2023/11/08 12:35:06;;;;;;;2.60;0.80;;;16.60;99.90;;;;;;5060124;28;20188;-77
2023/11/08 12:37:34;;;;;;;4.80;1.03;;;16.60;99.90;;;;;;5073009;28;20168;-77
2023/11/08 12:40:21;;;;;;;5.73;1.10;;;16.60;99.90;;;;;;5037227;28;20673;-77
2023/11/08 12:42:48;;;;;;;2.30;0.70;;;16.50;99.90;;;;;;5060709;28;20622;-77
2023/11/08 12:45:32;;;;;;;3.37;1.17;;;16.50;99.90;;;;;;5060403;28;20653;-77
2023/11/08 12:48:05;;;;;;;2.60;0.70;;;16.40;99.90;;;;;;5050844;28;20592;-78
2023/11/08 12:50:34;;;;;;;1.77;0.70;;;16.40;99.90;;;;;;5072096;28;20629;-77